sensor_id;sensor_type;location;lat;lon;timestamp;temperature;humidity
26479;DHT22;14163;-26.142;27.992;2023-11-21T00:00:15;24.40;99.90
26479;DHT22;14163;-26.142;27.992;2023-11-21T00:02:45;24.40;99.90
26479;DHT22;14163;-26.142;27.992;2023-11-21T00:05:14;24.50;99.90
26479;DHT22;14163;-26.142;27.992;2023-11-21T00:07:43;24.50;99.90
26479;DHT22;14163;-26.142;27.992;2023-11-21T00:10:15;24.60;99.90
26479;DHT22;14163;-26.142;27.992;2023-11-21T00:12:44;24.70;99.90
26479;DHT22;14163;-26.142;27.992;2023-11-21T00:15:15;24.60;99.90
26479;DHT22;14163;-26.142;27.992;2023-11-21T00:17:44;24.70;99.90
26479;DHT22;14163;-26.142;27.992;2023-11-21T00:20:13;24.70;99.90
26479;DHT22;14163;-26.142;27.992;2023-11-21T00:22:43;24.80;99.90
26479;DHT22;14163;-26.142;27.992;2023-11-21T00:25:12;24.80;99.90
26479;DHT22;14163;-26.142;27.992;2023-11-21T00:27:43;24.80;99.90
26479;DHT22;14163;-26.142;27.992;2023-11-21T00:30:14;24.60;99.90
26479;DHT22;14163;-26.142;27.992;2023-11-21T00:32:43;24.40;99.90
26479;DHT22;14163;-26.142;27.992;2023-11-21T00:35:12;24.00;99.90
26479;DHT22;14163;-26.142;27.992;2023-11-21T00:37:41;23.70;99.90
26479;DHT22;14163;-26.142;27.992;2023-11-21T00:40:11;23.40;99.90
26479;DHT22;14163;-26.142;27.992;2023-11-21T00:42:43;23.10;99.90
26479;DHT22;14163;-26.142;27.992;2023-11-21T00:45:13;22.80;99.90
26479;DHT22;14163;-26.142;27.992;2023-11-21T00:47:42;22.70;99.90
26479;DHT22;14163;-26.142;27.992;2023-11-21T00:50:11;22.50;99.90
26479;DHT22;14163;-26.142;27.992;2023-11-21T00:52:40;22.50;99.90
26479;DHT22;14163;-26.142;27.992;2023-11-21T00:55:10;22.40;99.90
26479;DHT22;14163;-26.142;27.992;2023-11-21T00:57:39;22.50;99.90
26479;DHT22;14163;-26.142;27.992;2023-11-21T01:00:11;22.40;99.90
26479;DHT22;14163;-26.142;27.992;2023-11-21T01:02:43;22.50;99.90
26479;DHT22;14163;-26.142;27.992;2023-11-21T01:05:13;22.40;99.90
26479;DHT22;14163;-26.142;27.992;2023-11-21T01:07:42;22.50;99.90
26479;DHT22;14163;-26.142;27.992;2023-11-21T01:10:11;22.50;99.90
26479;DHT22;14163;-26.142;27.992;2023-11-21T01:12:40;22.70;99.90
26479;DHT22;14163;-26.142;27.992;2023-11-21T01:15:11;22.80;99.90
26479;DHT22;14163;-26.142;27.992;2023-11-21T01:17:41;22.90;99.90
26479;DHT22;14163;-26.142;27.992;2023-11-21T01:20:10;23.00;99.90
26479;DHT22;14163;-26.142;27.992;2023-11-21T01:22:40;23.10;99.90
26479;DHT22;14163;-26.142;27.992;2023-11-21T01:25:09;23.10;99.90
26479;DHT22;14163;-26.142;27.992;2023-11-21T01:27:38;23.00;99.90
26479;DHT22;14163;-26.142;27.992;2023-11-21T01:30:10;23.10;99.90
26479;DHT22;14163;-26.142;27.992;2023-11-21T01:32:39;23.10;99.90
26479;DHT22;14163;-26.142;27.992;2023-11-21T01:35:09;23.20;99.90
26479;DHT22;14163;-26.142;27.992;2023-11-21T01:37:38;23.20;99.90
26479;DHT22;14163;-26.142;27.992;2023-11-21T01:40:08;23.30;99.90
26479;DHT22;14163;-26.142;27.992;2023-11-21T01:42:40;23.30;99.90
26479;DHT22;14163;-26.142;27.992;2023-11-21T01:45:12;23.20;99.90
26479;DHT22;14163;-26.142;27.992;2023-11-21T01:47:42;23.10;99.90
26479;DHT22;14163;-26.142;27.992;2023-11-21T01:50:16;23.10;99.90
26479;DHT22;14163;-26.142;27.992;2023-11-21T01:52:46;23.00;99.90
26479;DHT22;14163;-26.142;27.992;2023-11-21T01:55:17;22.90;99.90
26479;DHT22;14163;-26.142;27.992;2023-11-21T01:57:47;22.90;99.90
26479;DHT22;14163;-26.142;27.992;2023-11-21T02:00:19;22.70;99.90
26479;DHT22;14163;-26.142;27.992;2023-11-21T02:02:49;22.60;99.90
26479;DHT22;14163;-26.142;27.992;2023-11-21T02:05:18;22.50;99.90
26479;DHT22;14163;-26.142;27.992;2023-11-21T02:07:48;22.50;99.90
26479;DHT22;14163;-26.142;27.992;2023-11-21T02:10:19;22.60;99.90
26479;DHT22;14163;-26.142;27.992;2023-11-21T02:12:49;22.70;99.90
26479;DHT22;14163;-26.142;27.992;2023-11-21T02:15:20;22.60;99.90
26479;DHT22;14163;-26.142;27.992;2023-11-21T02:17:53;22.70;99.90
26479;DHT22;14163;-26.142;27.992;2023-11-21T02:20:23;22.60;99.90
26479;DHT22;14163;-26.142;27.992;2023-11-21T02:22:55;22.60;99.90
26479;DHT22;14163;-26.142;27.992;2023-11-21T02:25:26;22.70;99.90
26479;DHT22;14163;-26.142;27.992;2023-11-21T02:27:56;22.70;99.90
26479;DHT22;14163;-26.142;27.992;2023-11-21T02:30:26;22.50;99.90
26479;DHT22;14163;-26.142;27.992;2023-11-21T02:32:55;22.20;99.90
26479;DHT22;14163;-26.142;27.992;2023-11-21T02:35:25;21.90;99.90
26479;DHT22;14163;-26.142;27.992;2023-11-21T02:37:56;21.70;99.90
26479;DHT22;14163;-26.142;27.992;2023-11-21T02:40:25;21.70;99.90
26479;DHT22;14163;-26.142;27.992;2023-11-21T02:42:55;21.60;99.90
26479;DHT22;14163;-26.142;27.992;2023-11-21T02:45:25;21.50;99.90
26479;DHT22;14163;-26.142;27.992;2023-11-21T02:47:54;21.40;99.90
26479;DHT22;14163;-26.142;27.992;2023-11-21T02:50:23;21.30;99.90
26479;DHT22;14163;-26.142;27.992;2023-11-21T02:52:53;21.30;99.90
26479;DHT22;14163;-26.142;27.992;2023-11-21T02:55:26;21.40;99.90
26479;DHT22;14163;-26.142;27.992;2023-11-21T02:57:55;21.50;99.90
26479;DHT22;14163;-26.142;27.992;2023-11-21T03:00:25;21.70;99.90
26479;DHT22;14163;-26.142;27.992;2023-11-21T03:02:54;21.90;99.90
26479;DHT22;14163;-26.142;27.992;2023-11-21T03:05:24;22.00;99.90
26479;DHT22;14163;-26.142;27.992;2023-11-21T03:07:53;22.20;99.90
26479;DHT22;14163;-26.142;27.992;2023-11-21T03:10:22;22.50;99.90
26479;DHT22;14163;-26.142;27.992;2023-11-21T03:12:53;22.60;99.90
26479;DHT22;14163;-26.142;27.992;2023-11-21T03:15:22;22.70;99.90
26479;DHT22;14163;-26.142;27.992;2023-11-21T03:17:51;22.70;99.90
26479;DHT22;14163;-26.142;27.992;2023-11-21T03:20:20;22.70;99.90
26479;DHT22;14163;-26.142;27.992;2023-11-21T03:22:49;22.70;99.90
26479;DHT22;14163;-26.142;27.992;2023-11-21T03:25:18;22.80;99.90
26479;DHT22;14163;-26.142;27.992;2023-11-21T03:27:47;22.80;99.90
26479;DHT22;14163;-26.142;27.992;2023-11-21T03:30:18;22.90;99.90
26479;DHT22;14163;-26.142;27.992;2023-11-21T03:32:48;23.00;99.90
26479;DHT22;14163;-26.142;27.992;2023-11-21T03:35:18;23.20;99.90
26479;DHT22;14163;-26.142;27.992;2023-11-21T03:37:48;23.20;99.90
26479;DHT22;14163;-26.142;27.992;2023-11-21T03:40:17;23.30;99.90
26479;DHT22;14163;-26.142;27.992;2023-11-21T03:42:46;23.20;99.90
26479;DHT22;14163;-26.142;27.992;2023-11-21T03:45:15;23.10;99.90
26479;DHT22;14163;-26.142;27.992;2023-11-21T03:47:46;23.10;99.90
26479;DHT22;14163;-26.142;27.992;2023-11-21T03:50:15;23.20;99.90
26479;DHT22;14163;-26.142;27.992;2023-11-21T03:52:44;23.30;99.90
26479;DHT22;14163;-26.142;27.992;2023-11-21T03:55:13;23.30;99.90
26479;DHT22;14163;-26.142;27.992;2023-11-21T03:57:43;23.30;99.90
26479;DHT22;14163;-26.142;27.992;2023-11-21T04:00:13;23.30;99.90
26479;DHT22;14163;-26.142;27.992;2023-11-21T04:02:44;23.30;99.90
26479;DHT22;14163;-26.142;27.992;2023-11-21T04:05:14;23.20;99.90
26479;DHT22;14163;-26.142;27.992;2023-11-21T04:07:43;23.30;99.90
26479;DHT22;14163;-26.142;27.992;2023-11-21T04:10:12;23.20;99.90
26479;DHT22;14163;-26.142;27.992;2023-11-21T04:12:42;23.20;99.90
26479;DHT22;14163;-26.142;27.992;2023-11-21T04:15:12;23.20;99.90
26479;DHT22;14163;-26.142;27.992;2023-11-21T04:17:41;23.20;99.90
26479;DHT22;14163;-26.142;27.992;2023-11-21T04:20:13;23.20;99.90
26479;DHT22;14163;-26.142;27.992;2023-11-21T04:22:44;23.30;99.90
26479;DHT22;14163;-26.142;27.992;2023-11-21T04:25:14;23.40;99.90
26479;DHT22;14163;-26.142;27.992;2023-11-21T04:27:44;23.50;99.90
26479;DHT22;14163;-26.142;27.992;2023-11-21T04:30:14;23.50;99.90
26479;DHT22;14163;-26.142;27.992;2023-11-21T04:32:44;23.70;99.90
26479;DHT22;14163;-26.142;27.992;2023-11-21T04:35:14;23.70;99.90
26479;DHT22;14163;-26.142;27.992;2023-11-21T04:37:43;23.90;99.90
26479;DHT22;14163;-26.142;27.992;2023-11-21T04:40:13;24.00;99.90
26479;DHT22;14163;-26.142;27.992;2023-11-21T04:42:42;24.10;99.90
26479;DHT22;14163;-26.142;27.992;2023-11-21T04:45:11;24.10;99.90
26479;DHT22;14163;-26.142;27.992;2023-11-21T04:47:40;24.20;99.90
26479;DHT22;14163;-26.142;27.992;2023-11-21T04:50:10;24.30;99.90
26479;DHT22;14163;-26.142;27.992;2023-11-21T04:52:41;24.30;99.90
26479;DHT22;14163;-26.142;27.992;2023-11-21T04:55:10;24.30;99.90
26479;DHT22;14163;-26.142;27.992;2023-11-21T04:57:40;24.30;99.90
26479;DHT22;14163;-26.142;27.992;2023-11-21T05:00:09;24.50;99.90
26479;DHT22;14163;-26.142;27.992;2023-11-21T05:02:39;24.50;99.90
26479;DHT22;14163;-26.142;27.992;2023-11-21T05:05:09;24.50;99.90
26479;DHT22;14163;-26.142;27.992;2023-11-21T05:07:41;24.50;99.90
26479;DHT22;14163;-26.142;27.992;2023-11-21T05:10:10;24.50;99.90
26479;DHT22;14163;-26.142;27.992;2023-11-21T05:12:41;24.50;99.90
26479;DHT22;14163;-26.142;27.992;2023-11-21T05:15:15;24.50;99.90
26479;DHT22;14163;-26.142;27.992;2023-11-21T05:17:44;24.50;99.90
26479;DHT22;14163;-26.142;27.992;2023-11-21T05:20:16;24.50;99.90
26479;DHT22;14163;-26.142;27.992;2023-11-21T05:22:49;24.50;99.90
26479;DHT22;14163;-26.142;27.992;2023-11-21T05:25:19;24.60;99.90
26479;DHT22;14163;-26.142;27.992;2023-11-21T05:27:48;24.60;99.90
26479;DHT22;14163;-26.142;27.992;2023-11-21T05:30:17;24.60;99.90
26479;DHT22;14163;-26.142;27.992;2023-11-21T05:32:46;24.70;99.90
26479;DHT22;14163;-26.142;27.992;2023-11-21T05:35:16;24.80;99.90
26479;DHT22;14163;-26.142;27.992;2023-11-21T05:37:45;24.80;99.90
26479;DHT22;14163;-26.142;27.992;2023-11-21T05:40:16;24.90;99.90
26479;DHT22;14163;-26.142;27.992;2023-11-21T05:42:45;25.00;99.90
26479;DHT22;14163;-26.142;27.992;2023-11-21T05:45:15;25.10;99.90
26479;DHT22;14163;-26.142;27.992;2023-11-21T05:47:46;25.10;99.90
26479;DHT22;14163;-26.142;27.992;2023-11-21T05:50:16;25.10;99.90
26479;DHT22;14163;-26.142;27.992;2023-11-21T05:52:45;25.10;99.90
26479;DHT22;14163;-26.142;27.992;2023-11-21T05:55:16;25.10;99.90
26479;DHT22;14163;-26.142;27.992;2023-11-21T05:57:47;25.10;99.90
26479;DHT22;14163;-26.142;27.992;2023-11-21T06:00:17;25.10;99.90
26479;DHT22;14163;-26.142;27.992;2023-11-21T06:02:47;25.00;99.90
26479;DHT22;14163;-26.142;27.992;2023-11-21T06:05:18;25.00;99.90
26479;DHT22;14163;-26.142;27.992;2023-11-21T06:07:50;24.90;99.90
26479;DHT22;14163;-26.142;27.992;2023-11-21T06:10:21;24.80;99.90
26479;DHT22;14163;-26.142;27.992;2023-11-21T06:12:50;24.60;99.90
26479;DHT22;14163;-26.142;27.992;2023-11-21T06:15:19;24.70;99.90
26479;DHT22;14163;-26.142;27.992;2023-11-21T06:17:49;24.70;99.90
26479;DHT22;14163;-26.142;27.992;2023-11-21T06:20:21;24.70;99.90
26479;DHT22;14163;-26.142;27.992;2023-11-21T06:22:50;24.90;99.90
26479;DHT22;14163;-26.142;27.992;2023-11-21T06:25:21;24.90;99.90
26479;DHT22;14163;-26.142;27.992;2023-11-21T06:27:51;24.90;99.90
26479;DHT22;14163;-26.142;27.992;2023-11-21T06:30:20;24.90;99.90
26479;DHT22;14163;-26.142;27.992;2023-11-21T06:32:50;25.00;99.90
26479;DHT22;14163;-26.142;27.992;2023-11-21T06:35:19;25.00;99.90
26479;DHT22;14163;-26.142;27.992;2023-11-21T06:37:48;24.90;99.90
26479;DHT22;14163;-26.142;27.992;2023-11-21T06:40:20;24.90;99.90
26479;DHT22;14163;-26.142;27.992;2023-11-21T06:42:49;25.00;99.90
26479;DHT22;14163;-26.142;27.992;2023-11-21T06:45:19;25.10;99.90
26479;DHT22;14163;-26.142;27.992;2023-11-21T06:47:49;25.20;99.90
26479;DHT22;14163;-26.142;27.992;2023-11-21T06:50:20;25.30;99.90
26479;DHT22;14163;-26.142;27.992;2023-11-21T06:52:49;25.40;99.90
26479;DHT22;14163;-26.142;27.992;2023-11-21T06:55:20;25.60;99.90
26479;DHT22;14163;-26.142;27.992;2023-11-21T06:57:49;25.50;99.90
26479;DHT22;14163;-26.142;27.992;2023-11-21T07:00:19;25.60;99.90
26479;DHT22;14163;-26.142;27.992;2023-11-21T07:02:48;25.50;99.90
26479;DHT22;14163;-26.142;27.992;2023-11-21T07:05:17;25.40;99.90
26479;DHT22;14163;-26.142;27.992;2023-11-21T07:07:48;25.40;99.90
26479;DHT22;14163;-26.142;27.992;2023-11-21T07:10:17;25.50;99.90
26479;DHT22;14163;-26.142;27.992;2023-11-21T07:16:18;25.70;99.90
26479;DHT22;14163;-26.142;27.992;2023-11-21T07:18:47;25.80;99.90
26479;DHT22;14163;-26.142;27.992;2023-11-21T07:21:17;25.80;99.90
26479;DHT22;14163;-26.142;27.992;2023-11-21T07:23:47;25.80;99.90
26479;DHT22;14163;-26.142;27.992;2023-11-21T07:26:17;25.80;99.90
26479;DHT22;14163;-26.142;27.992;2023-11-21T07:28:46;25.90;99.90
26479;DHT22;14163;-26.142;27.992;2023-11-21T07:31:15;26.00;99.90
26479;DHT22;14163;-26.142;27.992;2023-11-21T07:33:46;26.00;99.90
26479;DHT22;14163;-26.142;27.992;2023-11-21T07:36:16;26.10;99.90
26479;DHT22;14163;-26.142;27.992;2023-11-21T07:38:45;26.20;99.90
26479;DHT22;14163;-26.142;27.992;2023-11-21T07:41:14;26.20;99.90
26479;DHT22;14163;-26.142;27.992;2023-11-21T07:43:44;26.20;99.90
26479;DHT22;14163;-26.142;27.992;2023-11-21T07:46:14;26.30;99.90
26479;DHT22;14163;-26.142;27.992;2023-11-21T07:48:48;26.40;99.90
26479;DHT22;14163;-26.142;27.992;2023-11-21T07:51:17;26.50;99.90
26479;DHT22;14163;-26.142;27.992;2023-11-21T07:53:46;26.60;99.90
26479;DHT22;14163;-26.142;27.992;2023-11-21T07:56:15;26.80;99.90
26479;DHT22;14163;-26.142;27.992;2023-11-21T07:58:44;26.90;99.90
26479;DHT22;14163;-26.142;27.992;2023-11-21T08:01:13;26.90;99.90
26479;DHT22;14163;-26.142;27.992;2023-11-21T08:03:42;26.90;99.90
26479;DHT22;14163;-26.142;27.992;2023-11-21T08:06:13;26.90;99.90
26479;DHT22;14163;-26.142;27.992;2023-11-21T08:08:42;26.90;99.90
26479;DHT22;14163;-26.142;27.992;2023-11-21T08:11:12;26.90;99.90
26479;DHT22;14163;-26.142;27.992;2023-11-21T08:13:41;26.80;99.90
26479;DHT22;14163;-26.142;27.992;2023-11-21T08:16:10;26.90;99.90
26479;DHT22;14163;-26.142;27.992;2023-11-21T08:18:39;26.90;99.90
26479;DHT22;14163;-26.142;27.992;2023-11-21T08:21:08;27.00;99.90
26479;DHT22;14163;-26.142;27.992;2023-11-21T08:23:40;27.10;99.90
26479;DHT22;14163;-26.142;27.992;2023-11-21T08:26:09;27.10;99.90
26479;DHT22;14163;-26.142;27.992;2023-11-21T08:28:40;27.20;99.90
26479;DHT22;14163;-26.142;27.992;2023-11-21T08:31:09;27.30;99.90
26479;DHT22;14163;-26.142;27.992;2023-11-21T08:33:38;27.50;99.90
26479;DHT22;14163;-26.142;27.992;2023-11-21T08:36:08;27.60;99.90
26479;DHT22;14163;-26.142;27.992;2023-11-21T08:38:40;27.60;99.90
26479;DHT22;14163;-26.142;27.992;2023-11-21T08:41:09;27.60;99.90
26479;DHT22;14163;-26.142;27.992;2023-11-21T08:43:38;27.70;99.90
26479;DHT22;14163;-26.142;27.992;2023-11-21T08:46:07;27.70;99.90
26479;DHT22;14163;-26.142;27.992;2023-11-21T08:48:36;27.70;99.90
26479;DHT22;14163;-26.142;27.992;2023-11-21T08:51:06;27.70;99.90
26479;DHT22;14163;-26.142;27.992;2023-11-21T08:53:36;27.60;99.90
26479;DHT22;14163;-26.142;27.992;2023-11-21T08:56:08;27.60;99.90
26479;DHT22;14163;-26.142;27.992;2023-11-21T08:58:40;27.50;99.90
26479;DHT22;14163;-26.142;27.992;2023-11-21T09:01:10;27.40;99.90
26479;DHT22;14163;-26.142;27.992;2023-11-21T09:03:39;27.60;99.90
26479;DHT22;14163;-26.142;27.992;2023-11-21T09:06:11;27.70;99.90
26479;DHT22;14163;-26.142;27.992;2023-11-21T09:08:41;27.80;99.90
26479;DHT22;14163;-26.142;27.992;2023-11-21T09:11:12;27.80;99.90
26479;DHT22;14163;-26.142;27.992;2023-11-21T09:13:41;27.80;99.90
26479;DHT22;14163;-26.142;27.992;2023-11-21T09:16:10;27.80;99.90
26479;DHT22;14163;-26.142;27.992;2023-11-21T09:18:42;27.80;99.90
26479;DHT22;14163;-26.142;27.992;2023-11-21T09:21:12;28.00;99.90
26479;DHT22;14163;-26.142;27.992;2023-11-21T09:23:42;28.20;99.90
26479;DHT22;14163;-26.142;27.992;2023-11-21T09:26:13;28.20;99.90
26479;DHT22;14163;-26.142;27.992;2023-11-21T09:28:43;28.20;99.90
26479;DHT22;14163;-26.142;27.992;2023-11-21T09:31:14;28.30;99.90
26479;DHT22;14163;-26.142;27.992;2023-11-21T09:33:44;28.50;99.90
26479;DHT22;14163;-26.142;27.992;2023-11-21T09:36:15;28.60;99.90
26479;DHT22;14163;-26.142;27.992;2023-11-21T09:38:44;28.80;99.90
26479;DHT22;14163;-26.142;27.992;2023-11-21T09:41:21;28.90;99.90
26479;DHT22;14163;-26.142;27.992;2023-11-21T09:43:55;28.90;99.90
26479;DHT22;14163;-26.142;27.992;2023-11-21T09:46:44;28.90;99.90
26479;DHT22;14163;-26.142;27.992;2023-11-21T09:49:19;28.90;99.90
26479;DHT22;14163;-26.142;27.992;2023-11-21T09:51:54;28.90;99.90
26479;DHT22;14163;-26.142;27.992;2023-11-21T09:54:24;28.90;99.90
26479;DHT22;14163;-26.142;27.992;2023-11-21T09:56:55;29.00;99.90
26479;DHT22;14163;-26.142;27.992;2023-11-21T09:59:25;29.20;99.90
26479;DHT22;14163;-26.142;27.992;2023-11-21T10:01:59;29.40;99.90
26479;DHT22;14163;-26.142;27.992;2023-11-21T12:21:39;29.40;99.90
26479;DHT22;14163;-26.142;27.992;2023-11-21T12:24:09;29.50;99.90
26479;DHT22;14163;-26.142;27.992;2023-11-21T12:26:40;30.10;99.90
26479;DHT22;14163;-26.142;27.992;2023-11-21T12:29:09;30.90;99.90
26479;DHT22;14163;-26.142;27.992;2023-11-21T12:31:38;31.50;98.40
26479;DHT22;14163;-26.142;27.992;2023-11-21T12:34:08;32.00;95.70
26479;DHT22;14163;-26.142;27.992;2023-11-21T12:36:40;32.40;94.30
26479;DHT22;14163;-26.142;27.992;2023-11-21T12:39:09;32.70;91.90
26479;DHT22;14163;-26.142;27.992;2023-11-21T12:41:38;33.00;91.30
26479;DHT22;14163;-26.142;27.992;2023-11-21T12:44:11;33.00;89.40
26479;DHT22;14163;-26.142;27.992;2023-11-21T12:46:43;33.20;85.00
26479;DHT22;14163;-26.142;27.992;2023-11-21T12:49:13;33.30;85.70
26479;DHT22;14163;-26.142;27.992;2023-11-21T12:51:46;33.30;83.70
26479;DHT22;14163;-26.142;27.992;2023-11-21T12:54:16;33.30;84.70
26479;DHT22;14163;-26.142;27.992;2023-11-21T12:56:46;33.30;83.90
26479;DHT22;14163;-26.142;27.992;2023-11-21T12:59:15;33.30;82.70
26479;DHT22;14163;-26.142;27.992;2023-11-21T13:01:45;33.30;82.20
26479;DHT22;14163;-26.142;27.992;2023-11-21T13:04:18;33.20;82.20
26479;DHT22;14163;-26.142;27.992;2023-11-21T13:06:48;33.00;80.70
26479;DHT22;14163;-26.142;27.992;2023-11-21T13:09:18;33.00;82.10
26479;DHT22;14163;-26.142;27.992;2023-11-21T13:11:48;33.00;81.50
26479;DHT22;14163;-26.142;27.992;2023-11-21T13:14:18;33.00;81.00
26479;DHT22;14163;-26.142;27.992;2023-11-21T13:16:47;33.00;81.40
26479;DHT22;14163;-26.142;27.992;2023-11-21T13:19:16;33.00;81.30
26479;DHT22;14163;-26.142;27.992;2023-11-21T13:21:50;33.10;81.50
26479;DHT22;14163;-26.142;27.992;2023-11-21T13:24:19;33.00;83.00
26479;DHT22;14163;-26.142;27.992;2023-11-21T13:26:48;33.00;83.70
26479;DHT22;14163;-26.142;27.992;2023-11-21T13:29:18;32.80;84.00
26479;DHT22;14163;-26.142;27.992;2023-11-21T13:31:47;32.70;84.00
26479;DHT22;14163;-26.142;27.992;2023-11-21T13:34:17;32.70;84.30
26479;DHT22;14163;-26.142;27.992;2023-11-21T13:36:50;32.80;83.20
26479;DHT22;14163;-26.142;27.992;2023-11-21T13:39:25;32.80;84.00
26479;DHT22;14163;-26.142;27.992;2023-11-21T13:41:55;33.00;83.20
26479;DHT22;14163;-26.142;27.992;2023-11-21T13:44:25;33.20;83.00
26479;DHT22;14163;-26.142;27.992;2023-11-21T13:47:01;33.00;82.20
26479;DHT22;14163;-26.142;27.992;2023-11-21T13:49:32;33.00;81.70
26479;DHT22;14163;-26.142;27.992;2023-11-21T13:52:09;32.80;80.50
26479;DHT22;14163;-26.142;27.992;2023-11-21T13:54:42;32.80;81.60
26479;DHT22;14163;-26.142;27.992;2023-11-21T13:57:11;32.70;80.70
26479;DHT22;14163;-26.142;27.992;2023-11-21T13:59:40;32.70;82.60
26479;DHT22;14163;-26.142;27.992;2023-11-21T14:02:10;32.80;83.20
26479;DHT22;14163;-26.142;27.992;2023-11-21T14:04:44;32.90;81.90
26479;DHT22;14163;-26.142;27.992;2023-11-21T14:07:24;32.90;82.40
26479;DHT22;14163;-26.142;27.992;2023-11-21T14:10:02;32.80;83.40
26479;DHT22;14163;-26.142;27.992;2023-11-21T14:12:33;32.80;84.30
26479;DHT22;14163;-26.142;27.992;2023-11-21T14:15:05;32.80;83.50
26479;DHT22;14163;-26.142;27.992;2023-11-21T14:17:36;32.80;83.70
26479;DHT22;14163;-26.142;27.992;2023-11-21T14:20:08;32.80;82.90
26479;DHT22;14163;-26.142;27.992;2023-11-21T14:22:44;32.80;83.90
26479;DHT22;14163;-26.142;27.992;2023-11-21T14:25:13;33.00;82.50
26479;DHT22;14163;-26.142;27.992;2023-11-21T14:27:44;33.00;82.00
26479;DHT22;14163;-26.142;27.992;2023-11-21T14:30:13;32.90;82.20
26479;DHT22;14163;-26.142;27.992;2023-11-21T14:32:46;32.90;81.60
26479;DHT22;14163;-26.142;27.992;2023-11-21T14:35:15;32.90;81.50
26479;DHT22;14163;-26.142;27.992;2023-11-21T14:37:46;33.00;82.50
26479;DHT22;14163;-26.142;27.992;2023-11-21T14:40:16;32.80;81.90
26479;DHT22;14163;-26.142;27.992;2023-11-21T14:42:48;32.80;82.30
26479;DHT22;14163;-26.142;27.992;2023-11-21T14:45:20;32.90;81.50
26479;DHT22;14163;-26.142;27.992;2023-11-21T14:47:51;32.90;79.70
26479;DHT22;14163;-26.142;27.992;2023-11-21T14:50:32;32.90;78.50
26479;DHT22;14163;-26.142;27.992;2023-11-21T14:53:19;32.80;77.60
26479;DHT22;14163;-26.142;27.992;2023-11-21T14:56:09;32.80;78.10
26479;DHT22;14163;-26.142;27.992;2023-11-21T14:58:48;32.80;77.50
26479;DHT22;14163;-26.142;27.992;2023-11-21T15:01:16;33.00;76.00
26479;DHT22;14163;-26.142;27.992;2023-11-21T15:03:53;33.00;76.00
26479;DHT22;14163;-26.142;27.992;2023-11-21T15:06:22;33.20;73.20
26479;DHT22;14163;-26.142;27.992;2023-11-21T15:08:58;33.10;72.30
26479;DHT22;14163;-26.142;27.992;2023-11-21T15:11:47;32.80;72.40
26479;DHT22;14163;-26.142;27.992;2023-11-21T15:14:16;32.90;72.60
26479;DHT22;14163;-26.142;27.992;2023-11-21T15:16:50;32.90;73.10
26479;DHT22;14163;-26.142;27.992;2023-11-21T15:19:23;32.90;72.60
26479;DHT22;14163;-26.142;27.992;2023-11-21T15:21:54;32.80;73.30
26479;DHT22;14163;-26.142;27.992;2023-11-21T15:24:25;32.80;73.80
26479;DHT22;14163;-26.142;27.992;2023-11-21T15:26:54;32.80;73.30
26479;DHT22;14163;-26.142;27.992;2023-11-21T15:29:23;32.80;73.00
26479;DHT22;14163;-26.142;27.992;2023-11-21T15:31:53;32.70;72.40
26479;DHT22;14163;-26.142;27.992;2023-11-21T15:34:23;32.70;72.80
26479;DHT22;14163;-26.142;27.992;2023-11-21T15:36:53;32.80;72.00
26479;DHT22;14163;-26.142;27.992;2023-11-21T15:39:24;32.70;71.90
26479;DHT22;14163;-26.142;27.992;2023-11-21T15:41:56;32.50;71.80
26479;DHT22;14163;-26.142;27.992;2023-11-21T15:44:25;32.60;73.20
26479;DHT22;14163;-26.142;27.992;2023-11-21T15:46:55;32.70;73.50
26479;DHT22;14163;-26.142;27.992;2023-11-21T15:49:24;32.70;71.90
26479;DHT22;14163;-26.142;27.992;2023-11-21T15:51:54;32.70;72.70
26479;DHT22;14163;-26.142;27.992;2023-11-21T15:54:27;32.70;72.40
26479;DHT22;14163;-26.142;27.992;2023-11-21T15:56:57;32.70;73.00
26479;DHT22;14163;-26.142;27.992;2023-11-21T15:59:27;32.70;72.10
26479;DHT22;14163;-26.142;27.992;2023-11-21T16:01:58;32.60;72.50
26479;DHT22;14163;-26.142;27.992;2023-11-21T16:04:27;32.60;72.50
26479;DHT22;14163;-26.142;27.992;2023-11-21T16:06:56;32.50;72.50
26479;DHT22;14163;-26.142;27.992;2023-11-21T16:09:28;32.50;73.00
26479;DHT22;14163;-26.142;27.992;2023-11-21T16:11:57;32.50;73.50
26479;DHT22;14163;-26.142;27.992;2023-11-21T16:14:28;32.50;74.10
26479;DHT22;14163;-26.142;27.992;2023-11-21T16:17:02;32.50;74.70
26479;DHT22;14163;-26.142;27.992;2023-11-21T16:19:33;32.50;75.40
26479;DHT22;14163;-26.142;27.992;2023-11-21T16:22:03;32.50;75.60
26479;DHT22;14163;-26.142;27.992;2023-11-21T16:24:34;32.40;76.60
26479;DHT22;14163;-26.142;27.992;2023-11-21T16:27:04;32.40;78.20
26479;DHT22;14163;-26.142;27.992;2023-11-21T16:29:36;32.40;78.70
26479;DHT22;14163;-26.142;27.992;2023-11-21T16:32:06;32.40;80.00
26479;DHT22;14163;-26.142;27.992;2023-11-21T16:34:35;32.40;80.40
26479;DHT22;14163;-26.142;27.992;2023-11-21T16:37:07;32.30;82.10
26479;DHT22;14163;-26.142;27.992;2023-11-21T16:39:38;32.30;81.00
26479;DHT22;14163;-26.142;27.992;2023-11-21T16:42:08;32.20;81.80
26479;DHT22;14163;-26.142;27.992;2023-11-21T16:44:37;32.10;83.80
26479;DHT22;14163;-26.142;27.992;2023-11-21T16:47:06;32.00;84.90
26479;DHT22;14163;-26.142;27.992;2023-11-21T16:49:36;32.00;86.10
26479;DHT22;14163;-26.142;27.992;2023-11-21T16:52:07;32.00;88.10
26479;DHT22;14163;-26.142;27.992;2023-11-21T16:54:38;32.00;89.30
26479;DHT22;14163;-26.142;27.992;2023-11-21T16:57:07;32.00;90.50
26479;DHT22;14163;-26.142;27.992;2023-11-21T16:59:38;32.00;97.80
26479;DHT22;14163;-26.142;27.992;2023-11-21T17:02:08;31.80;97.10
26479;DHT22;14163;-26.142;27.992;2023-11-21T17:04:37;31.70;99.50
26479;DHT22;14163;-26.142;27.992;2023-11-21T17:07:08;31.50;98.90
26479;DHT22;14163;-26.142;27.992;2023-11-21T17:09:41;31.30;96.90
26479;DHT22;14163;-26.142;27.992;2023-11-21T17:12:11;31.10;99.90
26479;DHT22;14163;-26.142;27.992;2023-11-21T17:14:40;31.10;99.90
26479;DHT22;14163;-26.142;27.992;2023-11-21T17:17:22;30.90;99.90
26479;DHT22;14163;-26.142;27.992;2023-11-21T17:19:51;30.90;99.90
26479;DHT22;14163;-26.142;27.992;2023-11-21T17:22:20;30.80;99.90
26479;DHT22;14163;-26.142;27.992;2023-11-21T17:24:51;30.70;99.90
26479;DHT22;14163;-26.142;27.992;2023-11-21T17:27:21;30.60;99.90
26479;DHT22;14163;-26.142;27.992;2023-11-21T17:29:51;30.60;99.90
26479;DHT22;14163;-26.142;27.992;2023-11-21T17:32:22;30.50;99.90
26479;DHT22;14163;-26.142;27.992;2023-11-21T17:34:51;30.50;99.90
26479;DHT22;14163;-26.142;27.992;2023-11-21T17:37:20;30.40;99.90
26479;DHT22;14163;-26.142;27.992;2023-11-21T17:39:51;30.50;99.90
26479;DHT22;14163;-26.142;27.992;2023-11-21T17:42:21;30.40;99.90